Archival Weather

Norman Y Mineta San Jose Intl

San Jose, California (KSJC)

Report from: Saturday, February 3, 2024 7:53 AM PST
Current time: Saturday, June 22, 2024 2:22 AM PDT

Current weather – Weather history – Daily summaries
Weather forecast

Temperature8.9°C (48.0°F)
Wind chill8.3°C (47.0°F)
Dew point5.6°C (42.1°F)
Winds 3 kts (1.5 m/s, 3.5 mph) South (170°)
Visibility10 mi. (16.1 km)
Clouds Few clouds 3,000 ft. (914 m)
Ceiling: Broken clouds 5,500 ft. (1,676 m)
Broken clouds 10,000 ft. (3,048 m)
Altimeter30.02 in.Hg (1017 mB)
Relative humidity80 %
Density altitude-706 ft. (-215 m)
Sea-level pressure101.6 kPa (1016 mB, 30.01 in.Hg)
Remarks Automated weather observing station with precipitation discriminator
Flight conditions Visual Meteorological Conditions
Raw dataKSJC 031553Z 17003KT 10SM FEW030 BKN055 BKN100 09/06 A3002 RMK AO2 SLP164 T00890056
An error has occurred. This application may no longer respond until reloaded. Reload 🗙